Brundidge, Alabama
Current Conditions -  °F | °C
As of 8:53 AM on Friday 24 Oct 2014 (Local Time) from KTOI Reporting Station
Clear Clear  
Wind Chill: 57°   Ceiling: Unl
Heat Index: 57°   Visibility: 10mi
Dew Point: 50°   Wind: 0mph
Humidity: 77%   Direction: NA
Pressure: 30.09"   Gusts: NA
Location:  31.72°N, 85.82°W
Report Text: KTOI 241353Z AUTO 00000KT 10SM CLR 14/10 A3009 RMK AO2 SLP188 T01390100
Loading
Personal Weather Stations






























Interactive Weather Map
Tropical Storm Tracking
New forecast layout! Learn more

10-Day Weather Forecast

Advertisements
Track Severe Weather on mobile